Impacts METAR Board
IDs:

KSLC - Salt Lake City Intl, UT, US

Updated at: 2200 UTC 21 May 2022
Potential Impact None Slight Moderate High
Time 21/10Z 21/11Z 21/12Z 21/13Z 21/14Z 21/15Z 21/16Z 21/17Z 21/18Z 21/19Z 21/20Z 21/21Z 21/22Z
Temp46 47 47 47 50 51 53 56 58 61 63 62 66
Dewpt22 18 21 19 18 18 19 19 17 17 17 14 17
Altim30.04 30.05 30.07 30.09 30.10 30.11 30.11 30.10 30.09 30.08 30.06 30.06 30.04
VIS10 10 10 10 10 10 10 10 10 10 10 10 10
CIG-- -- -- -- -- -- -- -- -- -- -- -- --
CoverCLRCLRCLRCLRCLRCLRCLRFEWFEWFEWFEWFEWFEW
FltCatVFRVFRVFRVFRVFRVFRVFRVFRVFRVFRVFRVFRVFR
WX--------------------------
WDir140120110110100110160180002800350
WSpd5 6 10 9 10 8 6 6 0 6 7 3 7
WGst-- -- -- -- -- -- -- -- -- -- -- -- --
Raw hourly METARs
KSLC 210954Z 14005KT 10SM CLR 08/M06 A3004 RMK AO2 SLP155 T00781056
KSLC 211054Z 12006KT 10SM CLR 08/M08 A3005 RMK AO2 SLP159 T00831078
KSLC 211154Z 11010KT 10SM CLR 08/M06 A3007 RMK AO2 SLP162 T00831061 10089 20072 53009
KSLC 211254Z 11009KT 10SM CLR 08/M07 A3009 RMK AO2 SLP170 T00831072
KSLC 211354Z 10010KT 10SM CLR 10/M08 A3010 RMK AO2 SLP174 T01001078
KSLC 211454Z 11008KT 10SM CLR 11/M08 A3011 RMK AO2 SLP179 T01061078 51013
KSLC 211554Z 16006KT 10SM CLR 12/M07 A3011 RMK AO2 SLP176 T01171072
KSLC 211654Z 18006KT 10SM FEW050 13/M07 A3010 RMK AO2 SLP171 T01331072
KSLC 211754Z 00000KT 10SM FEW050 14/M08 A3009 RMK AO2 SLP167 T01441083 10144 20078 58006
KSLC 211854Z VRB06KT 10SM FEW060 FEW200 16/M08 A3008 RMK AO2 SLP160 T01611083
KSLC 211954Z 28007KT 10SM FEW070 FEW200 17/M08 A3006 RMK AO2 SLP156 T01721083
KSLC 212054Z VRB03KT 10SM FEW090 17/M10 A3006 RMK AO2 SLP153 VIRGA DSNT E T01671100 56010
KSLC 212154Z 35007KT 10SM FEW085 19/M08 A3004 RMK AO2 SLP147 VIRGA DSNT E T01891083



Page loaded:  22:14 UTC  |   03:14 PM Pacific  |   04:14 PM Mountain  |   05:14 PM Central  |   06:14 PM Eastern

 

ADVISORIES

FORECASTS

FORECASTS

OBSERVATIONS

USER TOOLS

ABOUT US